Time;durP1;ratioP1;P1;durP2;ratioP2;P2;SDS_P1;SDS_P2;PMS_P1;PMS_P2;Temp;Humidity;BMP_temperature;BMP_pressure;BME280_temperature;BME280_humidity;BME280_pressure;Samples;Min_cycle;Max_cycle;Signal;HPM_P1;HPM_P2
2021/07/19 00:01:48;;;;;;;3.45;3.00;;;;;;;20.61;70.27;95098.99;1795265;80;21001;-60
2021/07/19 00:04:14;;;;;;;3.20;2.87;;;;;;;20.62;70.05;95101.22;1795673;80;21013;-60
2021/07/19 00:06:41;;;;;;;5.45;3.15;;;;;;;20.62;70.39;95099.87;1795411;80;21025;-60
2021/07/19 00:09:08;;;;;;;5.00;3.20;;;;;;;20.51;70.45;95096.05;1795474;80;21067;-60
2021/07/19 00:11:37;;;;;;;6.25;3.35;;;;;;;20.44;69.96;95093.39;1795845;80;21429;-60
2021/07/19 00:14:04;;;;;;;5.95;3.10;;;;;;;20.40;70.91;95094.54;1795795;80;20977;-60
2021/07/19 00:16:31;;;;;;;5.35;3.00;;;;;;;20.32;71.70;95088.83;1795567;80;20986;-60
2021/07/19 00:18:58;;;;;;;6.08;3.17;;;;;;;20.21;72.18;95083.29;1795711;80;21002;-60
2021/07/19 00:21:25;;;;;;;6.67;3.22;;;;;;;20.11;72.12;95080.38;1795836;80;20998;-60
2021/07/19 00:23:52;;;;;;;4.83;3.02;;;;;;;20.03;71.64;95084.88;1795433;80;21026;-60
2021/07/19 00:26:21;;;;;;;5.20;3.08;;;;;;;19.98;72.12;95072.72;1795518;80;21484;-59
2021/07/19 00:28:49;;;;;;;4.90;2.92;;;;;;;19.98;72.30;95064.69;1795782;80;21504;-61
2021/07/19 00:31:18;;;;;;;6.05;2.50;;;;;;;19.94;72.86;95065.38;1795416;80;20971;-60
2021/07/19 00:33:45;;;;;;;5.58;2.27;;;;;;;19.88;72.53;95065.75;1795503;80;21007;-60
2021/07/19 00:36:11;;;;;;;3.95;2.37;;;;;;;19.82;72.59;95064.33;1795813;80;21018;-60
2021/07/19 00:38:38;;;;;;;5.20;2.70;;;;;;;19.82;73.16;95069.69;1795434;80;21010;-60
2021/07/19 00:41:05;;;;;;;3.95;2.80;;;;;;;19.74;73.22;95061.28;1795246;80;20999;-60
2021/07/19 00:43:32;;;;;;;4.67;2.98;;;;;;;19.69;73.75;95059.38;1795442;80;21528;-60
2021/07/19 00:45:59;;;;;;;5.35;2.42;;;;;;;19.66;74.12;95067.58;1795146;80;21014;-60
2021/07/19 00:48:26;;;;;;;4.80;2.50;;;;;;;19.54;74.74;95067.00;1795549;80;20982;-60
2021/07/19 00:50:53;;;;;;;6.28;3.30;;;;;;;19.43;74.35;95066.34;1795355;80;21010;-60
2021/07/19 00:53:20;;;;;;;5.97;3.17;;;;;;;19.43;74.67;95071.69;1795610;80;21026;-60
2021/07/19 00:55:48;;;;;;;5.40;2.87;;;;;;;19.43;74.60;95067.67;1795438;80;21058;-60
2021/07/19 00:58:17;;;;;;;4.17;3.12;;;;;;;19.43;74.53;95067.19;1795561;80;21484;-60
2021/07/19 01:00:49;;;;;;;5.25;3.10;;;;;;;19.44;74.67;95066.70;1795454;80;20984;-60
2021/07/19 01:03:18;;;;;;;;;;;;;;;19.42;74.76;95072.63;1798002;80;21512;-60
2021/07/19 01:05:46;;;;;;;4.65;2.67;;;;;;;19.45;75.27;95077.78;1764295;81;20098;-60
2021/07/19 01:08:14;;;;;;;5.12;2.80;;;;;;;19.38;74.94;95074.64;1795432;80;20971;-60
2021/07/19 01:10:43;;;;;;;5.15;3.00;;;;;;;19.36;74.50;95070.34;1795622;80;21001;-60
2021/07/19 01:13:10;;;;;;;5.60;2.40;;;;;;;19.27;75.31;95077.09;1795360;80;21054;-60
2021/07/19 01:15:39;;;;;;;7.60;3.02;;;;;;;19.20;75.80;95078.42;1795287;80;21516;-60
2021/07/19 01:18:08;;;;;;;4.80;2.95;;;;;;;19.18;76.03;95079.02;1795484;80;21484;-60
2021/07/19 01:20:49;;;;;;;5.12;2.98;;;;;;;19.16;75.19;95076.91;1794945;80;21057;-60
2021/07/19 01:23:35;;;;;;;6.55;3.12;;;;;;;19.12;75.23;95070.86;1744895;80;20987;-59
2021/07/19 01:26:44;;;;;;;4.37;3.40;;;;;;;19.06;75.25;95074.41;1795587;80;21061;-60
2021/07/19 01:29:14;;;;;;;7.37;3.20;;;;;;;19.06;76.15;95073.92;1794414;80;21066;-60
2021/07/19 01:31:45;;;;;;;6.80;3.30;;;;;;;19.00;76.50;95079.16;1787057;80;21536;-60
2021/07/19 01:34:20;;;;;;;5.65;3.50;;;;;;;19.02;76.78;95095.09;1786975;80;21074;-60
2021/07/19 01:36:55;;;;;;;3.95;3.33;;;;;;;19.10;76.40;95091.96;1787441;80;21019;-60
2021/07/19 01:39:28;;;;;;;7.90;3.62;;;;;;;19.14;76.60;95089.50;1785559;80;21011;-60
2021/07/19 01:41:57;;;;;;;;;;;;;;;19.19;75.75;95097.63;1789727;80;20999;-60
2021/07/19 01:44:24;;;;;;;4.10;3.62;;;;;;;19.18;76.04;95096.39;1755997;82;20102;-60
2021/07/19 01:46:53;;;;;;;5.97;2.87;;;;;;;19.19;75.95;95109.66;1786804;80;21014;-60
2021/07/19 01:49:23;;;;;;;5.58;3.60;;;;;;;19.20;75.24;95108.72;1787062;80;21055;-59
2021/07/19 01:51:53;;;;;;;4.67;3.12;;;;;;;19.21;75.85;95113.59;1787295;80;21022;-60
2021/07/19 01:54:22;;;;;;;6.03;2.75;;;;;;;19.15;76.96;95103.24;1780154;80;21006;-60
2021/07/19 01:56:50;;;;;;;3.85;3.08;;;;;;;19.11;77.00;95111.94;1754640;80;21492;-60
2021/07/19 01:59:19;;;;;;;3.77;3.15;;;;;;;19.10;76.92;95109.34;1786840;80;21082;-60
2021/07/19 02:01:49;;;;;;;5.28;3.77;;;;;;;19.11;76.47;95109.27;1786479;80;21011;-60
2021/07/19 02:04:17;;;;;;;7.55;3.65;;;;;;;19.11;76.91;95107.07;1786956;80;21054;-60
2021/07/19 02:06:47;;;;;;;5.75;3.05;;;;;;;19.11;76.62;95114.61;1787523;80;21019;-59
2021/07/19 02:09:15;;;;;;;4.67;2.75;;;;;;;19.18;76.50;95105.76;1787481;80;21003;-60
2021/07/19 02:11:50;;;;;;;3.08;2.25;;;;;;;19.19;76.00;95103.45;1787142;80;21022;-60
2021/07/19 02:14:20;;;;;;;5.35;2.65;;;;;;;19.06;75.88;95107.34;1787328;80;20995;-60
2021/07/19 02:16:50;;;;;;;5.15;3.67;;;;;;;19.01;76.92;95115.63;1786739;80;21039;-60
2021/07/19 02:19:18;;;;;;;3.42;3.12;;;;;;;19.07;76.83;95118.89;1786381;80;21492;-60
2021/07/19 02:21:48;;;;;;;4.47;3.40;;;;;;;19.08;77.01;95113.95;1787098;80;21007;-60
2021/07/19 02:24:26;;;;;;;6.08;3.15;;;;;;;19.14;76.90;95106.88;1785731;80;21007;-60
2021/07/19 02:26:54;;;;;;;10.50;3.12;;;;;;;19.18;76.54;95119.98;1785414;80;21058;-60
2021/07/19 02:29:22;;;;;;;6.05;3.45;;;;;;;19.19;76.04;95123.03;1787504;80;20951;-60
2021/07/19 02:31:49;;;;;;;6.35;3.00;;;;;;;19.20;75.84;95132.80;1795227;80;21015;-59
2021/07/19 02:34:20;;;;;;;10.00;3.77;;;;;;;19.19;75.78;95138.22;1795173;80;21067;-60
2021/07/19 02:36:49;;;;;;;6.55;3.70;;;;;;;19.20;75.87;95139.93;1790484;80;21441;-60
2021/07/19 02:39:17;;;;;;;5.58;3.80;;;;;;;19.29;75.61;95140.73;1795325;80;21511;-59
2021/07/19 02:41:46;;;;;;;4.85;3.65;;;;;;;19.36;75.47;95147.44;1795553;80;21013;-60
2021/07/19 02:44:15;;;;;;;5.83;4.20;;;;;;;19.42;75.32;95135.02;1795299;80;21030;-60
2021/07/19 02:46:43;;;;;;;9.38;4.90;;;;;;;19.52;75.48;95122.42;1795138;80;21043;-60
2021/07/19 02:49:11;;;;;;;8.33;4.42;;;;;;;19.50;75.51;95118.97;1795219;80;21059;-59
2021/07/19 02:51:39;;;;;;;7.62;5.35;;;;;;;19.39;75.52;95122.31;1795261;80;21002;-60
2021/07/19 02:54:17;;;;;;;10.20;5.85;;;;;;;19.35;76.60;95116.75;1795637;80;21026;-60
2021/07/19 02:56:45;;;;;;;6.80;4.70;;;;;;;19.45;76.53;95117.45;1795529;80;21041;-60
2021/07/19 02:59:13;;;;;;;10.30;4.45;;;;;;;19.49;76.69;95119.45;1795423;80;20986;-59
2021/07/19 03:01:42;;;;;;;10.45;4.72;;;;;;;19.51;76.90;95118.03;1795430;80;20983;-60
2021/07/19 03:04:09;;;;;;;9.70;5.60;;;;;;;19.56;76.85;95115.94;1795481;80;21540;-60
2021/07/19 03:06:38;;;;;;;10.50;5.75;;;;;;;19.60;76.90;95114.29;1795433;80;20978;-60
2021/07/19 03:09:08;;;;;;;8.83;5.03;;;;;;;19.66;77.40;95119.28;1795421;80;21062;-60
2021/07/19 03:11:48;;;;;;;6.65;5.25;;;;;;;19.70;77.24;95125.32;1795521;80;21034;-60
2021/07/19 03:14:25;;;;;;;11.15;5.55;;;;;;;19.75;77.61;95134.41;1763925;80;21121;-60
2021/07/19 03:16:55;;;;;;;10.50;5.72;;;;;;;19.82;77.59;95139.29;1795531;80;21062;-60
2021/07/19 03:19:24;;;;;;;6.78;5.80;;;;;;;19.93;77.57;95136.42;1795240;80;21007;-60
2021/07/19 03:21:55;;;;;;;9.03;5.83;;;;;;;20.00;77.48;95133.73;1795745;80;20990;-59
2021/07/19 03:24:27;;;;;;;8.33;5.37;;;;;;;20.08;76.93;95136.78;1795256;80;21038;-59
2021/07/19 03:26:55;;;;;;;6.67;4.87;;;;;;;20.07;76.73;95137.27;1795367;80;20946;-60
2021/07/19 03:29:23;;;;;;;11.22;6.65;;;;;;;20.09;76.61;95138.53;1795083;80;21497;-60
2021/07/19 03:32:10;;;;;;;10.43;6.33;;;;;;;20.04;76.95;95132.12;1794871;80;21010;-60
2021/07/19 03:34:41;;;;;;;7.45;4.97;;;;;;;20.09;77.04;95132.69;1794956;80;21508;-60
2021/07/19 03:37:09;;;;;;;5.78;3.65;;;;;;;20.17;77.08;95130.86;1795551;80;20951;-60
2021/07/19 03:39:42;;;;;;;10.25;4.37;;;;;;;20.18;74.43;95127.69;1795487;80;21114;-60
2021/07/19 03:42:13;;;;;;;4.90;4.40;;;;;;;20.02;73.39;95134.52;1795242;80;21002;-60
2021/07/19 03:44:43;;;;;;;9.13;4.70;;;;;;;19.94;73.36;95138.16;1795621;80;21631;-60
2021/07/19 03:47:14;;;;;;;7.47;4.83;;;;;;;19.83;73.21;95138.80;1795344;80;21042;-60
2021/07/19 03:49:41;;;;;;;9.15;6.08;;;;;;;19.75;73.46;95141.10;1795603;80;21062;-60
2021/07/19 03:52:11;;;;;;;8.48;5.85;;;;;;;19.62;76.74;95143.16;1795498;80;21014;-60
2021/07/19 03:54:38;;;;;;;13.85;6.08;;;;;;;19.68;75.78;95139.30;1795470;80;20979;-60
2021/07/19 03:57:05;;;;;;;12.33;6.33;;;;;;;19.67;75.79;95137.56;1795560;80;21492;-60
2021/07/19 03:59:34;;;;;;;9.15;5.53;;;;;;;19.65;75.18;95129.62;1795238;80;21038;-60
2021/07/19 04:02:09;;;;;;;9.13;5.53;;;;;;;19.63;74.56;95135.53;1795261;80;20955;-60
2021/07/19 04:04:39;;;;;;;7.37;4.87;;;;;;;19.60;74.42;95134.36;1795320;80;21037;-60
2021/07/19 04:07:02;;;;;;;5.95;4.83;;;;;;;19.55;74.40;95135.60;1765076;80;21002;-60
2021/07/19 04:09:30;;;;;;;9.60;5.10;;;;;;;19.51;74.49;95138.10;1795491;80;21002;-60
2021/07/19 04:11:57;;;;;;;8.33;5.35;;;;;;;19.52;74.67;95139.33;1795544;80;21006;-60
2021/07/19 04:14:24;;;;;;;9.00;4.90;;;;;;;19.49;74.36;95141.34;1795481;80;20967;-60
2021/07/19 04:16:52;;;;;;;8.38;4.47;;;;;;;19.48;74.50;95138.27;1795400;80;21485;-59
2021/07/19 04:19:21;;;;;;;5.58;3.98;;;;;;;19.47;74.92;95144.10;1795421;80;21050;-59
2021/07/19 04:21:48;;;;;;;5.85;3.92;;;;;;;19.41;74.78;95148.02;1795866;80;21003;-60
2021/07/19 04:24:16;;;;;;;6.42;3.85;;;;;;;19.37;74.53;95146.47;1795259;80;21010;-60
2021/07/19 04:26:45;;;;;;;7.50;4.25;;;;;;;19.37;74.84;95151.81;1795747;80;20971;-60
2021/07/19 04:29:14;;;;;;;7.53;3.80;;;;;;;19.40;75.71;95153.45;1795781;80;21439;-59
2021/07/19 04:31:44;;;;;;;5.05;3.90;;;;;;;19.42;76.20;95148.39;1795348;80;21038;-60
2021/07/19 04:34:12;;;;;;;4.87;3.85;;;;;;;19.45;75.63;95154.91;1795499;80;21022;-59
2021/07/19 04:36:41;;;;;;;5.85;4.00;;;;;;;19.50;75.34;95155.09;1795280;80;21022;-59
2021/07/19 04:39:12;;;;;;;6.10;4.03;;;;;;;19.61;75.10;95160.67;1795446;80;21027;-60
2021/07/19 04:41:40;;;;;;;6.05;3.47;;;;;;;19.60;74.57;95165.62;1795804;80;21009;-60
2021/07/19 04:44:06;;;;;;;4.45;3.33;;;;;;;19.66;74.71;95171.47;1795389;80;21002;-60
2021/07/19 04:46:33;;;;;;;4.80;3.40;;;;;;;19.68;74.99;95167.41;1795621;80;21061;-59
2021/07/19 04:48:59;;;;;;;5.47;3.70;;;;;;;19.75;75.04;95183.45;1795537;80;20982;-59
2021/07/19 04:51:26;;;;;;;5.58;4.10;;;;;;;19.84;74.47;95182.89;1795541;80;21524;-60
2021/07/19 04:53:55;;;;;;;6.25;3.92;;;;;;;19.84;74.24;95184.72;1795600;80;21069;-60
2021/07/19 04:56:24;;;;;;;7.03;4.10;;;;;;;19.92;74.46;95193.13;1795315;80;20987;-60
2021/07/19 04:58:52;;;;;;;4.78;3.70;;;;;;;19.99;74.05;95198.49;1795360;80;21061;-60
2021/07/19 05:01:19;;;;;;;7.40;4.12;;;;;;;20.04;74.21;95203.57;1764658;80;20995;-60
2021/07/19 05:03:50;;;;;;;8.45;4.25;;;;;;;20.11;73.51;95212.95;1795338;80;21042;-60
2021/07/19 05:06:18;;;;;;;7.37;4.15;;;;;;;20.15;73.79;95209.59;1795318;80;20986;-60
2021/07/19 05:08:48;;;;;;;4.80;4.33;;;;;;;20.20;73.79;95210.16;1795718;80;20946;-60
2021/07/19 05:11:17;;;;;;;6.95;4.45;;;;;;;20.25;73.86;95204.89;1795507;80;21041;-60
2021/07/19 05:13:45;;;;;;;5.35;4.40;;;;;;;20.27;73.99;95212.36;1795450;80;21038;-60
2021/07/19 05:16:12;;;;;;;5.22;4.30;;;;;;;20.32;74.08;95210.73;1795470;80;20963;-60
2021/07/19 05:18:40;;;;;;;9.08;4.83;;;;;;;20.39;74.04;95214.75;1795340;80;20999;-60
2021/07/19 05:21:08;;;;;;;7.83;4.95;;;;;;;20.45;74.25;95217.03;1764357;80;21016;-60
2021/07/19 05:23:37;;;;;;;10.65;5.72;;;;;;;20.47;73.49;95215.61;1795641;80;21002;-60
2021/07/19 05:26:04;;;;;;;9.98;5.83;;;;;;;20.50;73.88;95218.08;1794953;80;21157;-60
2021/07/19 05:28:31;;;;;;;10.60;5.60;;;;;;;20.45;73.25;95220.20;1795167;80;21018;-60
2021/07/19 05:30:57;;;;;;;8.28;6.25;;;;;;;20.48;73.79;95221.33;1792448;80;21050;-60
2021/07/19 05:33:25;;;;;;;6.60;5.55;;;;;;;20.51;73.24;95223.81;1786709;80;20959;-60
2021/07/19 05:35:53;;;;;;;8.80;5.90;;;;;;;20.49;73.38;95221.73;1787266;80;20963;-60
2021/07/19 05:38:20;;;;;;;8.38;6.33;;;;;;;20.59;74.01;95225.58;1786840;80;21015;-60
2021/07/19 05:40:48;;;;;;;14.55;7.20;;;;;;;20.72;74.23;95222.48;1786739;80;20979;-60
2021/07/19 05:43:17;;;;;;;9.83;6.20;;;;;;;20.86;74.12;95222.06;1787033;80;21010;-60
2021/07/19 05:45:44;;;;;;;10.95;6.03;;;;;;;21.02;74.28;95228.16;1787198;80;21019;-60
2021/07/19 05:48:11;;;;;;;8.20;5.33;;;;;;;21.18;73.88;95224.83;1786831;80;21051;-59
2021/07/19 05:50:38;;;;;;;9.40;4.90;;;;;;;21.31;73.58;95234.27;1786824;80;21098;-59
2021/07/19 05:53:06;;;;;;;6.97;4.85;;;;;;;21.37;71.58;95227.65;1787040;80;21503;-59
2021/07/19 05:55:34;;;;;;;7.35;4.92;;;;;;;21.33;71.35;95231.48;1787049;80;21053;-59
2021/07/19 05:58:01;;;;;;;5.35;4.37;;;;;;;21.44;71.93;95238.84;1787169;80;20975;-60
2021/07/19 06:00:29;;;;;;;10.43;5.42;;;;;;;21.43;70.89;95239.34;1786840;80;21082;-60
2021/07/19 06:02:56;;;;;;;6.75;4.60;;;;;;;21.50;71.34;95237.11;1786768;80;21512;-60
2021/07/19 06:05:23;;;;;;;6.62;4.87;;;;;;;21.57;71.76;95245.98;1786930;80;21094;-60
2021/07/19 06:07:49;;;;;;;7.62;5.03;;;;;;;21.70;71.56;95246.02;1786675;80;21003;-60
2021/07/19 06:10:17;;;;;;;9.90;5.05;;;;;;;21.83;72.10;95243.34;1786782;80;21524;-60
2021/07/19 06:12:44;;;;;;;7.62;5.03;;;;;;;22.00;71.92;95245.73;1787087;80;20975;-59
2021/07/19 06:15:13;;;;;;;6.90;5.70;;;;;;;22.11;70.88;95248.16;1787197;80;20999;-59
2021/07/19 06:17:41;;;;;;;7.30;5.62;;;;;;;22.14;70.87;95245.25;1787198;80;21058;-59
2021/07/19 06:20:19;;;;;;;8.25;5.75;;;;;;;22.20;70.97;95248.87;1787095;80;21477;-59
2021/07/19 06:22:47;;;;;;;11.63;7.10;;;;;;;22.27;71.51;95244.78;1786307;80;21007;-60
2021/07/19 06:25:15;;;;;;;10.28;7.33;;;;;;;22.41;71.17;95241.99;1787357;80;21066;-60
2021/07/19 06:27:44;;;;;;;12.20;6.78;;;;;;;22.48;70.70;95243.77;1787126;80;20993;-60
2021/07/19 06:30:14;;;;;;;9.65;7.50;;;;;;;22.54;70.57;95250.53;1786390;80;21066;-60
2021/07/19 06:32:42;;;;;;;12.25;7.20;;;;;;;22.56;70.84;95256.17;1794992;80;21449;-59
2021/07/19 06:35:10;;;;;;;16.12;7.90;;;;;;;22.53;70.42;95256.86;1795308;80;21014;-59
2021/07/19 06:37:37;;;;;;;10.43;6.92;;;;;;;22.53;72.06;95263.58;1795379;80;20963;-59
2021/07/19 06:40:07;;;;;;;8.40;6.90;;;;;;;22.59;70.62;95264.51;1795153;80;21496;-59
2021/07/19 06:42:34;;;;;;;11.65;7.25;;;;;;;22.60;71.10;95263.06;1795487;80;20994;-59
2021/07/19 06:45:01;;;;;;;12.23;7.95;;;;;;;22.65;71.24;95260.91;1795281;80;21057;-59
2021/07/19 06:47:28;;;;;;;9.45;6.92;;;;;;;22.71;70.69;95262.78;1795536;80;20991;-59
2021/07/19 06:49:55;;;;;;;8.38;7.55;;;;;;;22.74;71.04;95264.75;1794760;80;21023;-60
2021/07/19 06:52:22;;;;;;;15.03;7.90;;;;;;;22.77;70.52;95269.91;1795438;80;21002;-59
2021/07/19 06:54:49;;;;;;;8.18;6.85;;;;;;;22.82;71.32;95276.30;1795126;80;21025;-59
2021/07/19 06:57:17;;;;;;;12.68;7.83;;;;;;;22.89;70.79;95270.36;1795157;80;21456;-59
2021/07/19 06:59:43;;;;;;;11.15;7.37;;;;;;;22.99;70.64;95276.47;1795143;80;21090;-59
2021/07/19 07:02:10;;;;;;;9.00;7.65;;;;;;;23.07;70.49;95272.72;1795505;80;21480;-59
2021/07/19 07:04:37;;;;;;;9.80;6.90;;;;;;;23.15;69.97;95274.36;1794903;80;21026;-59
2021/07/19 07:07:04;;;;;;;12.23;6.37;;;;;;;23.22;69.95;95270.25;1795138;80;21098;-59
2021/07/19 07:09:32;;;;;;;10.45;6.40;;;;;;;23.33;69.77;95272.14;1795475;80;21006;-59
2021/07/19 07:11:59;;;;;;;9.78;6.95;;;;;;;23.49;69.93;95267.84;1794882;80;21046;-59
2021/07/19 07:14:25;;;;;;;9.25;6.60;;;;;;;23.68;70.10;95260.56;1795574;80;21006;-59
2021/07/19 07:16:52;;;;;;;8.43;7.17;;;;;;;23.83;69.82;95261.27;1795798;80;21002;-59
2021/07/19 07:19:18;;;;;;;7.92;5.78;;;;;;;23.89;69.80;95267.52;1795452;80;21030;-59
2021/07/19 07:21:45;;;;;;;8.08;5.37;;;;;;;23.99;69.31;95261.82;1795104;80;21058;-59
2021/07/19 07:24:11;;;;;;;11.15;6.00;;;;;;;24.07;67.83;95264.77;1795470;80;20971;-59
2021/07/19 07:26:38;;;;;;;9.25;6.08;;;;;;;24.03;66.47;95265.98;1795364;80;21026;-59
2021/07/19 07:29:04;;;;;;;12.23;6.95;;;;;;;24.17;67.95;95264.92;1795368;80;20991;-59
2021/07/19 07:31:31;;;;;;;10.75;6.92;;;;;;;24.33;67.33;95265.92;1795394;80;21057;-59
2021/07/19 07:34:00;;;;;;;12.58;7.45;;;;;;;24.41;66.31;95272.91;1794777;80;21054;-60
2021/07/19 07:36:33;;;;;;;13.85;7.28;;;;;;;24.41;65.67;95266.17;1795396;80;20979;-59
2021/07/19 07:39:02;;;;;;;10.98;7.37;;;;;;;24.44;66.21;95265.08;1795822;80;21007;-59
2021/07/19 07:41:30;;;;;;;12.88;7.15;;;;;;;24.44;66.32;95261.88;1795496;80;21010;-59
2021/07/19 07:43:57;;;;;;;9.40;7.10;;;;;;;24.45;66.40;95260.95;1795402;80;21010;-59
2021/07/19 07:46:25;;;;;;;11.90;6.92;;;;;;;24.36;65.17;95266.53;1795318;80;21143;-60
2021/07/19 07:48:53;;;;;;;10.98;6.85;;;;;;;24.31;65.56;95261.13;1795411;80;21025;-59
2021/07/19 07:51:21;;;;;;;11.28;7.25;;;;;;;24.51;66.03;95261.80;1795598;80;21054;-60
2021/07/19 07:53:48;;;;;;;11.53;7.50;;;;;;;24.73;65.45;95252.86;1795211;80;20987;-59
2021/07/19 07:56:15;;;;;;;10.65;7.22;;;;;;;24.97;67.01;95250.51;1795092;80;21019;-59
2021/07/19 07:58:41;;;;;;;13.20;6.87;;;;;;;25.16;65.08;95244.02;1795079;80;21504;-59
2021/07/19 08:01:08;;;;;;;9.80;7.60;;;;;;;25.51;65.00;95244.30;1795049;80;21018;-59
2021/07/19 08:03:34;;;;;;;12.07;7.87;;;;;;;25.74;63.31;95233.40;1794886;80;21006;-60
2021/07/19 08:06:01;;;;;;;10.53;7.75;;;;;;;25.99;64.38;95231.70;1795480;80;21113;-59
2021/07/19 08:08:27;;;;;;;12.30;7.30;;;;;;;26.29;64.19;95228.70;1795595;80;21011;-60
2021/07/19 08:10:54;;;;;;;9.65;7.17;;;;;;;26.62;63.77;95225.42;1795466;80;21499;-60
2021/07/19 08:13:20;;;;;;;9.78;7.25;;;;;;;26.90;62.53;95231.94;1764391;80;20990;-59
2021/07/19 08:15:47;;;;;;;10.48;7.03;;;;;;;27.05;59.98;95235.98;1795394;80;21018;-60
2021/07/19 08:18:15;;;;;;;10.15;6.95;;;;;;;27.28;57.68;95229.01;1795320;80;21011;-59
2021/07/19 08:20:44;;;;;;;12.13;7.35;;;;;;;27.50;58.37;95228.77;1795231;80;21519;-59
2021/07/19 08:23:12;;;;;;;13.35;7.35;;;;;;;27.69;57.87;95229.77;1795318;80;21018;-59
2021/07/19 08:25:39;;;;;;;10.32;7.20;;;;;;;27.85;56.16;95227.39;1795303;80;21083;-60
2021/07/19 08:28:06;;;;;;;12.65;7.28;;;;;;;27.91;54.92;95220.53;1795005;80;20987;-60
2021/07/19 08:30:34;;;;;;;10.48;7.00;;;;;;;27.94;57.02;95227.02;1795492;80;21504;-60
2021/07/19 08:33:01;;;;;;;10.60;7.58;;;;;;;28.10;55.77;95218.28;1788327;80;20983;-60
2021/07/19 08:35:28;;;;;;;9.75;7.25;;;;;;;28.04;55.18;95217.86;1786601;80;21063;-60
2021/07/19 08:37:57;;;;;;;12.33;7.30;;;;;;;27.96;54.86;95212.31;1787006;80;21073;-60
2021/07/19 08:40:25;;;;;;;8.90;6.35;;;;;;;27.85;52.08;95210.27;1787442;80;21497;-60
2021/07/19 08:42:55;;;;;;;13.43;7.05;;;;;;;27.93;54.30;95215.32;1787149;80;21034;-60
2021/07/19 08:45:22;;;;;;;11.28;7.33;;;;;;;28.07;53.00;95211.30;1787130;80;21034;-60
2021/07/19 08:47:51;;;;;;;8.83;6.90;;;;;;;28.08;52.27;95211.67;1787105;80;21082;-59
2021/07/19 08:50:22;;;;;;;17.30;6.72;;;;;;;28.13;52.09;95208.53;1786565;80;21007;-59
2021/07/19 08:52:52;;;;;;;12.88;6.83;;;;;;;28.25;52.33;95215.00;1787323;80;21489;-60
2021/07/19 08:55:20;;;;;;;13.32;6.67;;;;;;;28.35;50.20;95219.53;1787218;80;21002;-60
2021/07/19 08:57:49;;;;;;;11.18;6.92;;;;;;;28.44;49.65;95226.80;1786978;80;20991;-60
2021/07/19 09:00:20;;;;;;;10.70;7.12;;;;;;;28.45;51.16;95228.05;1787263;80;20999;-60
2021/07/19 09:02:47;;;;;;;7.85;6.05;;;;;;;28.61;49.65;95222.51;1787347;80;20987;-60
2021/07/19 09:05:14;;;;;;;10.68;6.33;;;;;;;28.71;50.85;95222.47;1786983;80;21030;-60
2021/07/19 09:07:41;;;;;;;9.48;6.58;;;;;;;28.90;49.80;95220.54;1787094;80;21051;-60
2021/07/19 09:10:10;;;;;;;11.95;7.28;;;;;;;28.94;48.18;95218.88;1786786;80;21067;-61
2021/07/19 09:12:40;;;;;;;9.50;7.45;;;;;;;28.82;47.99;95223.13;1787196;80;21018;-60
2021/07/19 09:15:10;;;;;;;8.38;7.35;;;;;;;28.65;49.66;95223.90;1787251;80;21509;-60
2021/07/19 09:17:37;;;;;;;12.47;7.62;;;;;;;28.54;50.66;95217.31;1787103;80;21472;-59
2021/07/19 09:20:09;;;;;;;11.05;8.08;;;;;;;28.40;53.29;95224.02;1787144;80;20980;-59
2021/07/19 09:22:37;;;;;;;13.22;8.20;;;;;;;28.14;51.53;95219.72;1787429;80;20955;-60
2021/07/19 09:25:12;;;;;;;10.82;8.35;;;;;;;27.74;52.41;95234.27;1787039;80;21068;-59
2021/07/19 09:28:07;;;;;;;15.83;9.70;;;;;;;27.46;53.22;95243.58;1785397;80;21026;-60
2021/07/19 09:30:38;;;;;;;19.87;8.68;;;;;;;27.09;54.11;95248.73;1786833;80;21671;-59
2021/07/19 09:33:14;;;;;;;8.45;7.10;;;;;;;26.62;56.14;95258.73;1787068;80;21031;-59
2021/07/19 09:35:46;;;;;;;13.20;8.83;;;;;;;25.95;60.05;95270.78;1787154;80;21019;-60
2021/07/19 09:38:18;;;;;;;11.15;8.53;;;;;;;25.30;63.20;95269.02;1787520;80;21401;-61
2021/07/19 09:40:50;;;;;;;11.95;8.53;;;;;;;24.76;66.46;95267.45;1787266;80;21019;-59
2021/07/19 09:43:20;;;;;;;12.68;9.88;;;;;;;24.71;67.88;95268.31;1786773;80;21475;-59
2021/07/19 09:46:00;;;;;;;12.75;9.88;;;;;;;24.91;68.79;95261.81;1786866;80;21500;-60
2021/07/19 09:48:27;;;;;;;13.43;9.58;;;;;;;25.22;70.56;95251.63;1784072;80;21027;-59
2021/07/19 09:50:54;;;;;;;14.68;9.20;;;;;;;25.64;70.62;95258.48;1787068;80;21011;-60
2021/07/19 09:53:38;;;;;;;13.65;11.20;;;;;;;26.05;68.80;95256.84;1787186;80;21477;-59
2021/07/19 09:56:19;;;;;;;15.78;14.18;;;;;;;26.39;67.51;95270.19;1787166;80;21049;-60
2021/07/19 09:58:52;;;;;;;14.90;13.18;;;;;;;26.58;65.72;95274.87;1787132;80;20991;-59
2021/07/19 10:01:31;;;;;;;16.17;14.50;;;;;;;26.53;65.51;95278.00;1787149;80;21023;-60
2021/07/19 10:04:08;;;;;;;18.42;15.48;;;;;;;26.54;65.27;95271.59;1786452;80;20987;-60
2021/07/19 10:06:37;;;;;;;18.42;16.07;;;;;;;26.40;64.67;95275.09;1786750;80;21054;-60
2021/07/19 10:09:11;;;;;;;19.52;16.02;;;;;;;26.36;64.94;95276.34;1787121;80;21475;-60
2021/07/19 10:11:42;;;;;;;20.27;17.85;;;;;;;26.14;65.25;95280.05;1787120;80;21484;-59
2021/07/19 10:14:10;;;;;;;21.42;17.55;;;;;;;25.89;65.06;95290.23;1787278;80;21109;-59
2021/07/19 10:16:44;;;;;;;24.70;20.00;;;;;;;25.71;66.11;95287.70;1787169;80;21031;-59
2021/07/19 10:19:08;;;;;;;25.88;21.10;;;;;;;25.60;65.63;95280.47;1785172;80;21018;-59
2021/07/19 10:21:35;;;;;;;26.10;20.62;;;;;;;25.44;66.24;95281.75;1786904;80;21046;-59
2021/07/19 10:24:06;;;;;;;30.40;21.97;;;;;;;25.28;67.42;95276.41;1787282;80;21480;-60
2021/07/19 10:26:34;;;;;;;25.92;21.27;;;;;;;25.20;67.31;95279.24;1787123;80;20988;-60
2021/07/19 10:29:03;;;;;;;22.13;18.52;;;;;;;25.06;67.71;95280.81;1786789;80;20987;-59
2021/07/19 10:31:31;;;;;;;20.00;16.62;;;;;;;24.90;68.11;95275.80;1787094;80;21007;-59
2021/07/19 10:34:01;;;;;;;21.35;17.20;;;;;;;24.86;68.00;95268.92;1786748;80;20993;-59
2021/07/19 10:36:35;;;;;;;16.93;15.23;;;;;;;24.80;67.71;95264.03;1786817;80;21006;-60
2021/07/19 10:39:09;;;;;;;17.77;14.98;;;;;;;24.64;68.64;95264.88;1787217;80;20991;-59
2021/07/19 10:41:39;;;;;;;17.90;16.00;;;;;;;24.55;69.24;95264.64;1786756;80;21026;-59
2021/07/19 10:44:09;;;;;;;19.12;15.75;;;;;;;24.46;68.76;95265.35;1787231;80;20987;-59
2021/07/19 10:46:36;;;;;;;17.50;14.50;;;;;;;24.45;69.29;95269.50;1787387;80;21007;-59
2021/07/19 10:49:12;;;;;;;18.92;15.60;;;;;;;24.53;69.17;95272.48;1786744;80;21075;-59
2021/07/19 10:51:44;;;;;;;18.12;16.23;;;;;;;24.49;69.05;95275.89;1786931;80;21011;-59
2021/07/19 10:54:19;;;;;;;17.40;15.15;;;;;;;24.48;69.28;95274.69;1786307;80;21513;-59
2021/07/19 10:56:47;;;;;;;19.87;15.43;;;;;;;24.47;69.35;95268.44;1786919;80;20968;-59
2021/07/19 10:59:28;;;;;;;18.10;15.98;;;;;;;24.48;69.41;95261.20;1787013;80;20991;-59
2021/07/19 11:01:57;;;;;;;18.32;15.50;;;;;;;24.41;69.72;95274.27;1787065;80;21015;-59
2021/07/19 11:04:25;;;;;;;18.60;15.88;;;;;;;24.44;70.03;95271.31;1786998;80;20994;-60
2021/07/19 11:06:59;;;;;;;20.72;16.90;;;;;;;24.52;69.71;95266.70;1786782;80;20987;-59
2021/07/19 11:09:38;;;;;;;23.32;17.80;;;;;;;24.61;69.71;95260.59;1787147;80;20948;-60
2021/07/19 11:12:16;;;;;;;22.00;18.12;;;;;;;24.64;69.12;95263.53;1787059;80;20983;-60
2021/07/19 11:14:55;;;;;;;22.10;17.60;;;;;;;24.68;69.23;95269.06;1755112;80;21544;-59
2021/07/19 11:17:26;;;;;;;24.80;18.07;;;;;;;24.58;69.29;95278.38;1787022;80;20998;-59
2021/07/19 11:19:56;;;;;;;20.15;18.00;;;;;;;24.43;70.31;95269.61;1786843;80;21505;-60
2021/07/19 11:22:27;;;;;;;26.45;18.27;;;;;;;24.35;69.60;95260.78;1786695;80;21067;-59
2021/07/19 11:25:10;;;;;;;22.05;16.77;;;;;;;24.45;70.51;95258.25;1787172;80;21026;-60
2021/07/19 11:27:40;;;;;;;19.65;16.32;;;;;;;24.90;69.75;95256.06;1787123;80;20991;-59
2021/07/19 11:30:18;;;;;;;19.52;17.37;;;;;;;25.43;70.97;95243.59;1787440;80;21015;-59
2021/07/19 11:32:45;;;;;;;18.85;16.73;;;;;;;25.92;67.77;95220.20;1786246;80;21023;-59
2021/07/19 11:35:19;;;;;;;19.00;15.23;;;;;;;26.33;65.22;95206.67;1786621;80;21520;-59
2021/07/19 11:37:50;;;;;;;16.95;15.08;;;;;;;26.61;64.80;95201.56;1786906;80;21041;-59
2021/07/19 11:40:37;;;;;;;19.10;15.68;;;;;;;27.08;64.84;95206.41;1787159;80;21018;-60